Time;durP1;ratioP1;P1;durP2;ratioP2;P2;SDS_P1;SDS_P2;PMS_P1;PMS_P2;Temp;Humidity;BMP_temperature;BMP_pressure;BME280_temperature;BME280_humidity;BME280_pressure;Samples;Min_cycle;Max_cycle;Signal;HPM_P1;HPM_P2
2022/09/02 00:02:39;;;;;;;4.72;1.95;;;;;;;8.05;100.00;99443.44;2225847;79;20992;-55
2022/09/02 00:05:41;;;;;;;4.35;1.70;;;;;;;8.04;100.00;99444.34;2226403;79;21525;-55
2022/09/02 00:08:43;;;;;;;8.30;2.70;;;;;;;8.07;100.00;99440.76;2226274;80;21016;-55
2022/09/02 00:11:44;;;;;;;8.75;2.65;;;;;;;7.98;100.00;99439.38;2228944;79;21094;-54
2022/09/02 00:14:46;;;;;;;7.90;2.50;;;;;;;7.92;100.00;99437.86;2227330;79;20995;-54
2022/09/02 00:17:48;;;;;;;12.10;2.98;;;;;;;7.94;100.00;99435.17;2227883;80;21039;-54
2022/09/02 00:20:50;;;;;;;8.80;2.62;;;;;;;7.88;100.00;99438.05;2229124;80;21046;-54
2022/09/02 00:23:51;;;;;;;7.85;2.33;;;;;;;7.77;100.00;99435.41;2228327;79;20983;-55
2022/09/02 00:26:53;;;;;;;9.15;2.20;;;;;;;7.68;100.00;99429.70;2229471;79;21485;-56
2022/09/02 00:29:54;;;;;;;7.58;2.33;;;;;;;7.63;100.00;99433.34;2229310;79;21010;-56
2022/09/02 00:32:55;;;;;;;6.25;2.05;;;;;;;7.61;100.00;99435.17;2227916;79;21498;-55
2022/09/02 00:35:57;;;;;;;3.27;1.47;;;;;;;7.50;100.00;99436.47;2227723;80;20996;-55
2022/09/02 00:38:58;;;;;;;9.38;2.42;;;;;;;7.46;100.00;99433.98;2227557;78;20995;-56
2022/09/02 00:42:00;;;;;;;3.77;1.75;;;;;;;7.39;100.00;99429.08;2228617;79;21007;-56
2022/09/02 00:45:03;;;;;;;6.83;1.80;;;;;;;7.34;100.00;99421.42;2228831;79;21043;-56
2022/09/02 00:48:05;;;;;;;4.20;1.57;;;;;;;7.35;100.00;99425.72;2225557;80;21624;-56
2022/09/02 00:51:07;;;;;;;7.55;2.60;;;;;;;7.40;100.00;99426.41;2231577;80;21072;-55
2022/09/02 00:54:08;;;;;;;5.78;2.10;;;;;;;7.43;100.00;99430.20;2227921;79;21509;-56
2022/09/02 00:57:10;;;;;;;6.70;2.08;;;;;;;7.49;100.00;99425.20;2228988;79;21000;-56
2022/09/02 01:00:11;;;;;;;2.80;1.40;;;;;;;7.52;100.00;99432.06;2228418;78;20991;-56
2022/09/02 01:03:13;;;;;;;2.83;1.40;;;;;;;7.57;100.00;99427.06;2228610;79;21016;-56
2022/09/02 01:06:14;;;;;;;4.87;2.02;;;;;;;7.51;100.00;99427.28;2228601;80;21042;-55
2022/09/02 01:09:16;;;;;;;2.58;1.42;;;;;;;7.52;100.00;99431.59;2228906;78;21026;-56
2022/09/02 01:12:18;;;;;;;4.03;1.70;;;;;;;7.30;100.00;99431.58;2227863;80;20987;-55
2022/09/02 01:15:20;;;;;;;1.85;0.93;;;;;;;7.11;100.00;99433.58;2228037;80;21035;-55
2022/09/02 01:18:23;;;;;;;3.37;1.25;;;;;;;7.06;100.00;99429.43;2228735;79;21002;-57
2022/09/02 01:21:24;;;;;;;1.62;0.88;;;;;;;7.04;100.00;99432.53;2230080;79;20995;-58
2022/09/02 01:24:26;;;;;;;2.80;1.07;;;;;;;7.00;100.00;99429.67;2230105;79;21493;-58
2022/09/02 01:27:27;;;;;;;4.12;1.62;;;;;;;6.96;100.00;99427.61;2229089;79;21019;-57
2022/09/02 01:30:29;;;;;;;22.75;3.67;;;;;;;6.98;100.00;99424.94;2228094;79;21455;-57
2022/09/02 01:33:30;;;;;;;15.48;2.92;;;;;;;7.05;100.00;99429.02;2228402;78;20991;-58
2022/09/02 01:36:32;;;;;;;7.70;1.90;;;;;;;7.08;100.00;99431.08;2228403;79;21012;-57
2022/09/02 01:39:33;;;;;;;9.95;2.65;;;;;;;7.08;100.00;99431.08;2228015;80;21103;-57
2022/09/02 01:42:35;;;;;;;11.63;2.87;;;;;;;7.09;100.00;99426.70;2228592;79;21008;-57
2022/09/02 01:45:36;;;;;;;8.95;1.70;;;;;;;7.13;100.00;99426.98;2228398;79;21058;-57
2022/09/02 01:48:39;;;;;;;3.62;1.22;;;;;;;7.18;100.00;99425.50;2229142;79;21121;-56
2022/09/02 01:51:41;;;;;;;10.05;2.90;;;;;;;7.22;100.00;99422.72;2228796;79;21046;-59
2022/09/02 01:54:43;;;;;;;8.13;2.27;;;;;;;7.18;100.00;99424.20;2226988;79;21019;-57
2022/09/02 01:57:45;;;;;;;10.80;2.45;;;;;;;7.06;100.00;99425.52;2228965;80;20972;-58
2022/09/02 02:00:47;;;;;;;;;;;;;;;6.94;100.00;99428.13;2231127;79;21478;-57
2022/09/02 02:03:48;;;;;;;8.63;2.50;;;;;;;6.84;100.00;99433.25;2228699;79;20097;-57
2022/09/02 02:06:50;;;;;;;16.52;3.75;;;;;;;6.69;100.00;99428.14;2229546;80;21027;-57
2022/09/02 02:09:51;;;;;;;14.58;3.30;;;;;;;6.66;100.00;99425.66;2228783;80;20960;-57
2022/09/02 02:12:53;;;;;;;8.43;2.30;;;;;;;6.63;100.00;99423.16;2229778;79;20999;-56
2022/09/02 02:15:54;;;;;;;10.23;2.50;;;;;;;6.79;100.00;99420.85;2228022;79;20995;-57
2022/09/02 02:18:56;;;;;;;7.30;2.22;;;;;;;7.03;100.00;99425.63;2227786;79;21286;-56
2022/09/02 02:21:57;;;;;;;5.05;1.80;;;;;;;6.98;100.00;99418.42;2228225;79;21592;-56
2022/09/02 02:24:59;;;;;;;5.80;1.82;;;;;;;6.81;100.00;99420.33;2228267;79;21030;-56
2022/09/02 02:28:00;;;;;;;6.23;2.00;;;;;;;6.64;100.00;99416.58;2229083;80;21502;-57
2022/09/02 02:31:02;;;;;;;6.80;2.20;;;;;;;6.56;100.00;99414.69;2228548;79;21128;-57
2022/09/02 02:34:03;;;;;;;8.20;2.63;;;;;;;6.54;100.00;99415.22;2229564;79;21655;-56
2022/09/02 02:37:05;;;;;;;9.23;2.45;;;;;;;6.57;100.00;99414.64;2228526;78;21352;-56
2022/09/02 02:40:06;;;;;;;6.75;2.52;;;;;;;6.53;100.00;99414.34;2228613;79;21014;-57
2022/09/02 02:43:08;;;;;;;7.85;3.02;;;;;;;6.54;100.00;99417.81;2228534;79;20972;-56
2022/09/02 02:46:10;;;;;;;6.53;1.98;;;;;;;6.52;100.00;99418.30;2224593;79;20991;-57
2022/09/02 02:49:12;;;;;;;6.97;2.20;;;;;;;6.50;100.00;99413.15;2229961;79;21031;-58
2022/09/02 02:52:13;;;;;;;6.35;1.90;;;;;;;6.43;100.00;99418.17;2228952;79;21011;-57
2022/09/02 02:55:15;;;;;;;6.55;2.30;;;;;;;6.34;100.00;99420.65;2229559;78;20987;-57
2022/09/02 02:58:17;;;;;;;8.00;2.55;;;;;;;6.17;100.00;99419.91;2229482;79;21486;-58
2022/09/02 03:01:18;;;;;;;5.50;2.30;;;;;;;6.11;100.00;99414.91;2227576;79;21027;-58
2022/09/02 03:04:19;;;;;;;11.00;2.30;;;;;;;6.03;100.00;99412.58;2229587;79;21011;-58
2022/09/02 03:07:21;;;;;;;8.33;2.65;;;;;;;6.00;100.00;99419.16;2229194;79;21051;-58
2022/09/02 03:10:23;;;;;;;10.15;2.80;;;;;;;6.06;100.00;99421.59;2228126;79;21003;-57
2022/09/02 03:13:24;;;;;;;9.78;2.92;;;;;;;6.19;100.00;99418.55;2228434;79;21039;-58
2022/09/02 03:16:26;;;;;;;10.68;2.90;;;;;;;6.19;100.00;99418.12;2228580;79;20972;-57
2022/09/02 03:19:27;;;;;;;8.45;2.25;;;;;;;6.06;100.00;99407.69;2228268;79;21526;-58
2022/09/02 03:22:28;;;;;;;9.20;2.20;;;;;;;5.98;100.00;99412.33;2228713;79;21086;-57
2022/09/02 03:25:30;;;;;;;5.83;2.12;;;;;;;5.89;100.00;99410.38;2228682;80;21494;-57
2022/09/02 03:28:32;;;;;;;4.12;1.62;;;;;;;5.77;100.00;99409.92;2229167;78;21022;-57
2022/09/02 03:31:34;;;;;;;4.42;1.75;;;;;;;5.75;100.00;99411.70;2228222;79;21519;-57
2022/09/02 03:34:36;;;;;;;8.33;2.50;;;;;;;5.69;100.00;99407.58;2229995;80;21106;-57
2022/09/02 03:37:37;;;;;;;4.33;2.00;;;;;;;5.57;100.00;99414.45;2226454;80;21553;-57
2022/09/02 03:40:38;;;;;;;6.58;2.40;;;;;;;5.57;100.00;99411.39;2228588;80;20980;-58
2022/09/02 03:43:40;;;;;;;10.27;2.70;;;;;;;5.47;100.00;99416.02;2229125;79;20980;-57
2022/09/02 03:46:42;;;;;;;12.37;3.50;;;;;;;5.57;100.00;99419.20;2228694;79;21046;-57
2022/09/02 03:49:43;;;;;;;9.78;3.10;;;;;;;5.68;100.00;99422.78;2228876;79;20992;-57
2022/09/02 03:52:44;;;;;;;12.90;2.85;;;;;;;5.75;100.00;99424.72;2228331;79;21003;-57
2022/09/02 03:55:46;;;;;;;10.27;2.73;;;;;;;5.72;100.00;99427.00;2228258;79;21078;-57
2022/09/02 03:58:48;;;;;;;8.77;2.43;;;;;;;5.73;100.00;99431.28;2229266;79;21353;-57
2022/09/02 04:01:50;;;;;;;10.45;2.50;;;;;;;5.73;100.00;99425.64;2228243;79;21561;-57
2022/09/02 04:04:52;;;;;;;8.53;2.30;;;;;;;5.81;100.00;99428.45;2228213;78;21100;-57
2022/09/02 04:07:55;;;;;;;7.50;2.12;;;;;;;5.84;100.00;99430.49;2229229;79;20999;-58
2022/09/02 04:10:56;;;;;;;;;;;;;;;5.87;100.00;99438.20;2230559;79;21554;-58
2022/09/02 04:13:58;;;;;;;8.40;2.33;;;;;;;5.90;100.00;99442.03;2228627;79;20123;-57
2022/09/02 04:17:00;;;;;;;4.23;1.87;;;;;;;5.70;100.00;99441.80;2226001;80;21557;-58
2022/09/02 04:20:01;;;;;;;9.55;2.42;;;;;;;5.70;100.00;99437.46;2228219;79;21261;-57
2022/09/02 04:23:03;;;;;;;10.27;2.57;;;;;;;5.70;100.00;99437.89;2229424;79;21553;-57
2022/09/02 04:26:05;;;;;;;5.10;1.90;;;;;;;5.69;100.00;99442.25;2227218;79;21715;-57
2022/09/02 04:29:08;;;;;;;8.07;1.93;;;;;;;5.77;100.00;99439.40;2229168;78;21509;-57
2022/09/02 04:32:09;;;;;;;5.58;2.00;;;;;;;5.77;100.00;99439.40;2227729;78;21479;-56
2022/09/02 04:35:11;;;;;;;7.72;2.47;;;;;;;5.79;100.00;99444.55;2229274;79;21553;-56
2022/09/02 04:38:13;;;;;;;13.60;2.67;;;;;;;6.05;100.00;99439.88;2229645;79;20995;-57
2022/09/02 04:41:14;;;;;;;10.05;2.35;;;;;;;6.31;100.00;99440.77;2228819;79;21526;-57
2022/09/02 04:44:16;;;;;;;9.05;2.55;;;;;;;6.52;100.00;99447.84;2227021;79;21117;-56
2022/09/02 04:47:17;;;;;;;11.68;2.75;;;;;;;6.60;100.00;99448.88;2226693;79;21035;-56
2022/09/02 04:50:19;;;;;;;11.50;3.35;;;;;;;6.80;100.00;99448.64;2228789;79;20993;-56
2022/09/02 04:53:20;;;;;;;12.18;2.80;;;;;;;6.93;100.00;99448.12;2228565;79;21069;-56
2022/09/02 04:56:21;;;;;;;11.12;2.98;;;;;;;7.08;100.00;99448.47;2228110;79;21023;-57
2022/09/02 04:59:23;;;;;;;13.00;3.10;;;;;;;7.17;100.00;99447.28;2228763;79;21035;-56
2022/09/02 05:02:25;;;;;;;13.83;3.50;;;;;;;7.34;100.00;99444.91;2228893;78;21039;-57
2022/09/02 05:05:26;;;;;;;15.98;4.42;;;;;;;7.65;100.00;99446.33;2228574;80;21231;-58
2022/09/02 05:08:28;;;;;;;18.70;4.58;;;;;;;8.02;100.00;99449.25;2228603;79;21568;-57
2022/09/02 05:11:30;;;;;;;8.63;2.47;;;;;;;8.33;100.00;99450.99;2228562;78;21007;-57
2022/09/02 05:14:32;;;;;;;;;;;;;;;8.64;100.00;99448.88;2230854;78;20988;-58
2022/09/02 05:17:35;;;;;;;9.60;2.52;;;;;;;8.95;100.00;99451.44;2227473;79;20092;-59
2022/09/02 05:20:38;;;;;;;9.88;2.50;;;;;;;9.22;100.00;99454.59;2228458;79;21024;-58
2022/09/02 05:23:40;;;;;;;13.98;3.05;;;;;;;9.49;100.00;99449.85;2227849;80;21011;-58
2022/09/02 05:26:43;;;;;;;13.87;3.50;;;;;;;9.63;100.00;99449.69;2229576;79;21019;-58
2022/09/02 05:29:45;;;;;;;12.13;3.42;;;;;;;9.83;100.00;99446.95;2228289;79;21036;-58
2022/09/02 05:32:48;;;;;;;12.40;3.12;;;;;;;10.16;100.00;99437.53;2227854;79;21486;-58
2022/09/02 05:35:52;;;;;;;7.10;2.62;;;;;;;10.46;100.00;99446.11;2203066;80;21568;-58
2022/09/02 05:38:53;;;;;;;11.15;2.90;;;;;;;10.70;100.00;99450.13;2203953;79;20984;-58
2022/09/02 05:41:54;;;;;;;13.08;2.80;;;;;;;11.03;100.00;99433.99;2229044;80;21008;-58
2022/09/02 05:44:56;;;;;;;10.85;2.67;;;;;;;11.42;100.00;99436.70;2228348;79;21570;-58
2022/09/02 05:47:57;;;;;;;12.50;2.80;;;;;;;11.69;100.00;99438.75;2228356;80;21062;-58
2022/09/02 05:50:58;;;;;;;11.08;2.83;;;;;;;11.94;100.00;99436.47;2228774;79;21506;-58
2022/09/02 05:54:00;;;;;;;8.83;2.80;;;;;;;12.23;100.00;99443.15;2228592;80;20994;-58
2022/09/02 05:57:02;;;;;;;10.85;3.00;;;;;;;12.58;100.00;99440.70;2229860;79;21550;-57
2022/09/02 06:00:04;;;;;;;11.50;3.10;;;;;;;12.77;100.00;99440.43;2228404;80;20992;-57
2022/09/02 06:03:05;;;;;;;7.55;2.67;;;;;;;12.98;100.00;99440.44;2228479;79;21681;-57
2022/09/02 06:06:07;;;;;;;9.67;3.00;;;;;;;13.17;100.00;99443.27;2228819;79;21078;-57
2022/09/02 06:09:08;;;;;;;8.70;2.87;;;;;;;13.36;100.00;99436.44;2228532;79;21737;-58
2022/09/02 06:12:10;;;;;;;12.05;3.17;;;;;;;13.68;100.00;99437.00;2228605;80;20987;-58
2022/09/02 06:15:12;;;;;;;12.63;3.23;;;;;;;13.94;100.00;99439.75;2228579;79;21070;-57
2022/09/02 06:18:13;;;;;;;10.68;3.55;;;;;;;14.19;100.00;99436.36;2229011;78;21046;-57
2022/09/02 06:21:15;;;;;;;12.47;3.60;;;;;;;14.36;100.00;99443.61;2226988;79;21034;-57
2022/09/02 06:24:16;;;;;;;10.80;3.23;;;;;;;14.50;100.00;99446.66;2229475;79;21059;-57
2022/09/02 06:27:18;;;;;;;11.40;3.00;;;;;;;14.77;100.00;99444.42;2229065;78;21275;-58
2022/09/02 06:30:20;;;;;;;8.90;2.85;;;;;;;14.95;100.00;99440.52;2228387;79;21525;-57
2022/09/02 06:33:22;;;;;;;14.25;3.33;;;;;;;15.10;100.00;99443.03;2228158;79;20984;-57
2022/09/02 06:36:24;;;;;;;9.33;2.80;;;;;;;15.37;100.00;99442.89;2229122;80;21635;-58
2022/09/02 06:39:27;;;;;;;8.95;2.80;;;;;;;15.73;100.00;99437.23;2229886;79;20987;-57
2022/09/02 06:42:29;;;;;;;10.90;3.50;;;;;;;16.16;100.00;99436.77;2228406;79;21031;-56
2022/09/02 06:45:30;;;;;;;11.47;2.77;;;;;;;16.39;100.00;99444.30;2229541;79;21050;-57
2022/09/02 06:48:32;;;;;;;9.98;2.35;;;;;;;16.62;100.00;99438.58;2228330;78;21011;-57
2022/09/02 06:51:33;;;;;;;8.00;2.20;;;;;;;17.04;100.00;99438.52;2228588;79;21001;-57
2022/09/02 06:54:35;;;;;;;7.85;2.20;;;;;;;17.34;100.00;99441.92;2227815;79;21471;-57
2022/09/02 06:57:36;;;;;;;7.23;1.87;;;;;;;17.58;100.00;99435.60;2228448;79;21019;-56
2022/09/02 07:00:38;;;;;;;8.10;2.22;;;;;;;17.93;100.00;99439.88;2228665;80;22158;-57
2022/09/02 07:06:44;;;;;;;8.43;2.10;;;;;;;18.53;100.00;99441.54;2203134;79;20995;-58
2022/09/02 07:09:45;;;;;;;8.80;2.12;;;;;;;18.77;100.00;99441.77;2229269;78;21051;-58
2022/09/02 07:12:47;;;;;;;4.35;1.45;;;;;;;18.94;100.00;99449.16;2228105;79;21054;-58
2022/09/02 07:15:48;;;;;;;6.28;1.42;;;;;;;19.14;100.00;99441.30;2223867;80;21489;-59
2022/09/02 07:18:50;;;;;;;4.75;1.20;;;;;;;19.43;100.00;99441.39;2223274;80;20980;-59
2022/09/02 07:21:51;;;;;;;6.17;1.52;;;;;;;19.58;100.00;99448.48;2227463;78;21474;-59
2022/09/02 07:24:53;;;;;;;7.83;1.45;;;;;;;19.59;100.00;99442.19;2229786;79;21003;-57
2022/09/02 07:27:55;;;;;;;7.03;1.15;;;;;;;19.77;100.00;99446.84;2227607;79;20988;-58
2022/09/02 07:30:56;;;;;;;5.90;1.12;;;;;;;19.80;100.00;99446.63;2228585;79;21078;-58
2022/09/02 07:33:58;;;;;;;3.65;1.02;;;;;;;19.87;99.38;99448.59;2229060;79;21037;-57
2022/09/02 07:36:59;;;;;;;2.80;0.98;;;;;;;20.05;94.79;99446.06;2224952;79;21070;-58
2022/09/02 07:40:01;;;;;;;4.92;1.07;;;;;;;20.23;92.15;99454.72;2228513;79;21007;-57
2022/09/02 07:43:03;;;;;;;5.55;1.30;;;;;;;20.23;92.15;99454.72;2226351;80;21478;-57
2022/09/02 07:46:05;;;;;;;3.30;0.93;;;;;;;20.29;91.59;99451.98;2229003;79;21004;-58
2022/09/02 07:49:06;;;;;;;4.15;1.20;;;;;;;20.44;89.74;99447.88;2224176;80;21584;-58
2022/09/02 07:52:08;;;;;;;5.75;1.25;;;;;;;20.70;88.93;99441.98;2230637;79;21034;-57
2022/09/02 07:55:09;;;;;;;4.37;1.07;;;;;;;20.83;87.11;99445.20;2227466;79;21537;-58
2022/09/02 07:58:11;;;;;;;6.22;1.15;;;;;;;21.13;87.69;99439.25;2228463;79;20964;-57
2022/09/02 08:01:12;;;;;;;7.10;1.30;;;;;;;21.35;80.31;99440.72;2229032;79;21008;-57
2022/09/02 08:04:13;;;;;;;5.85;1.02;;;;;;;21.45;84.69;99436.67;2228267;79;21039;-57
2022/09/02 08:07:17;;;;;;;3.37;0.95;;;;;;;21.68;79.54;99431.79;2228749;79;21050;-58
2022/09/02 08:10:19;;;;;;;4.50;1.20;;;;;;;21.60;76.49;99427.69;2197946;80;21047;-58
2022/09/02 08:13:20;;;;;;;9.10;1.27;;;;;;;21.57;77.44;99427.99;2228506;79;21103;-57
2022/09/02 08:16:22;;;;;;;4.83;1.15;;;;;;;21.73;76.66;99436.16;2228377;80;21589;-56
2022/09/02 08:19:24;;;;;;;9.15;1.12;;;;;;;21.82;75.14;99440.27;2227885;79;21034;-58
2022/09/02 08:22:26;;;;;;;;;;;;;;;21.91;69.12;99437.53;2226240;79;21031;-57
2022/09/02 08:25:27;;;;;;;2.63;0.90;;;;;;;21.97;71.57;99436.91;2228898;79;20092;-57
2022/09/02 08:28:30;;;;;;;6.50;1.20;;;;;;;22.18;73.23;99431.75;2229157;80;21093;-57
2022/09/02 08:31:32;;;;;;;3.50;1.07;;;;;;;22.55;70.49;99435.27;2230250;79;21033;-58
2022/09/02 08:34:34;;;;;;;7.28;1.22;;;;;;;22.71;66.27;99435.36;2232388;80;20976;-57
2022/09/02 08:37:35;;;;;;;2.40;1.05;;;;;;;22.54;66.85;99434.91;2228911;79;21047;-57
2022/09/02 08:40:37;;;;;;;2.65;0.82;;;;;;;22.60;66.06;99434.30;2229101;79;21098;-57
2022/09/02 08:43:39;;;;;;;8.38;1.05;;;;;;;22.78;65.74;99431.06;2228247;79;21015;-57
2022/09/02 08:46:40;;;;;;;3.50;0.80;;;;;;;22.57;64.88;99432.78;2228610;80;21070;-58
2022/09/02 08:49:42;;;;;;;6.00;1.00;;;;;;;21.96;54.91;99430.39;2228490;79;21024;-57
2022/09/02 08:52:44;;;;;;;5.65;1.12;;;;;;;21.73;59.34;99437.50;2229582;78;21011;-57
2022/09/02 08:55:46;;;;;;;2.70;1.15;;;;;;;22.35;62.93;99430.09;2229406;79;21129;-57
2022/09/02 08:58:47;;;;;;;;;;;;;;;22.95;57.94;99419.14;2231501;79;21035;-58
2022/09/02 09:01:49;;;;;;;6.47;1.07;;;;;;;22.88;56.01;99421.59;2231219;80;20107;-57
2022/09/02 09:04:50;;;;;;;9.23;1.05;;;;;;;22.30;48.03;99416.34;2229220;79;21015;-58
2022/09/02 09:07:52;;;;;;;8.85;1.42;;;;;;;22.18;50.27;99418.90;2228701;79;20991;-58
2022/09/02 09:10:55;;;;;;;8.95;1.40;;;;;;;22.15;55.21;99412.02;2228096;79;21027;-57
2022/09/02 09:13:57;;;;;;;3.47;0.80;;;;;;;21.91;54.70;99415.31;2228805;79;21134;-57
2022/09/02 09:16:59;;;;;;;6.10;1.05;;;;;;;21.80;55.67;99413.21;2229996;80;21007;-57
2022/09/02 09:20:01;;;;;;;;;;;;;;;21.70;55.65;99413.78;2230960;79;21055;-59
2022/09/02 09:23:03;;;;;;;5.65;1.37;;;;;;;21.67;58.30;99413.26;2228703;79;20104;-58
2022/09/02 09:26:04;;;;;;;11.35;1.20;;;;;;;21.58;57.27;99405.66;2228359;80;21063;-59
2022/09/02 09:29:06;;;;;;;3.25;1.12;;;;;;;21.59;58.41;99405.98;2229621;79;21557;-58
2022/09/02 09:32:07;;;;;;;3.40;1.27;;;;;;;22.54;58.31;99409.04;2228421;79;21003;-57
2022/09/02 09:35:09;;;;;;;12.90;2.10;;;;;;;23.21;53.92;99412.43;2228337;79;21546;-58
2022/09/02 09:38:10;;;;;;;3.55;1.07;;;;;;;22.29;51.10;99407.97;2228399;79;21090;-58
2022/09/02 09:41:12;;;;;;;;;;;;;;;21.73;52.93;99401.46;2230706;79;21000;-58
2022/09/02 09:44:14;;;;;;;3.87;0.90;;;;;;;22.12;56.31;99406.52;2229195;80;20108;-57
2022/09/02 09:47:18;;;;;;;8.55;1.20;;;;;;;22.61;51.81;99403.88;2228853;79;21817;-58
2022/09/02 09:50:19;;;;;;;2.02;0.80;;;;;;;23.19;51.30;99398.39;2202914;79;21528;-57
2022/09/02 09:53:20;;;;;;;3.20;0.80;;;;;;;23.12;46.28;99396.02;2227373;78;21071;-58
2022/09/02 09:56:22;;;;;;;4.45;0.80;;;;;;;23.35;50.49;99397.09;2228220;79;21490;-56
2022/09/02 09:59:23;;;;;;;7.42;0.82;;;;;;;23.04;43.81;99379.38;2228915;78;21030;-57
2022/09/02 10:02:25;;;;;;;4.33;1.07;;;;;;;23.35;50.66;99378.88;2228268;79;21003;-57
2022/09/02 10:05:26;;;;;;;3.27;0.93;;;;;;;23.80;47.32;99381.63;2228787;79;21058;-57
2022/09/02 10:08:27;;;;;;;3.72;0.80;;;;;;;24.29;48.99;99367.95;2229362;79;20964;-58
2022/09/02 10:11:29;;;;;;;2.83;0.78;;;;;;;24.63;41.07;99368.27;2230163;80;21458;-58
2022/09/02 10:14:32;;;;;;;3.90;0.85;;;;;;;24.34;46.30;99376.33;2228838;79;20999;-57
2022/09/02 10:17:33;;;;;;;2.30;0.82;;;;;;;24.15;44.54;99371.66;2228112;80;21032;-58
2022/09/02 10:20:35;;;;;;;;;;;;;;;24.30;44.32;99377.16;2231942;79;21058;-58
2022/09/02 10:23:36;;;;;;;4.62;1.12;;;;;;;24.66;46.29;99374.63;2228595;79;20159;-59
2022/09/02 10:26:38;;;;;;;4.30;0.57;;;;;;;25.19;44.54;99365.03;2229678;79;20999;-58
2022/09/02 10:29:39;;;;;;;2.65;0.80;;;;;;;25.41;42.78;99354.06;2229808;79;21038;-58
2022/09/02 10:32:42;;;;;;;;;;;;;;;25.86;45.32;99359.63;2229892;79;21114;-57
2022/09/02 10:35:43;;;;;;;4.55;1.10;;;;;;;26.05;42.00;99365.56;2227621;80;20140;-57
2022/09/02 10:38:45;;;;;;;;;;;;;;;25.62;42.08;99367.87;2231727;79;21545;-57
2022/09/02 10:41:46;;;;;;;2.87;0.57;;;;;;;25.35;42.96;99372.20;2226911;80;20101;-57
2022/09/02 10:44:48;;;;;;;2.22;0.55;;;;;;;25.44;40.92;99361.42;2228059;79;21502;-58
2022/09/02 10:47:49;;;;;;;3.65;0.57;;;;;;;25.38;39.95;99358.94;2228927;79;21069;-57
2022/09/02 10:50:52;;;;;;;3.20;0.98;;;;;;;24.32;37.65;99363.59;2228779;79;20968;-57
2022/09/02 10:53:53;;;;;;;3.20;1.22;;;;;;;22.94;40.63;99368.83;2228866;79;21000;-57
2022/09/02 10:56:57;;;;;;;4.40;0.75;;;;;;;21.96;41.55;99368.46;2228612;79;21007;-57
2022/09/02 10:59:58;;;;;;;4.47;1.27;;;;;;;21.36;43.84;99370.34;2201336;79;21724;-57
2022/09/02 11:03:00;;;;;;;5.60;1.00;;;;;;;21.14;44.46;99368.11;2229210;80;21008;-59
2022/09/02 11:06:03;;;;;;;5.70;1.12;;;;;;;21.08;44.42;99365.53;2228492;79;20995;-58
2022/09/02 11:09:05;;;;;;;1.72;0.93;;;;;;;21.04;44.95;99371.64;2196825;79;21486;-58
2022/09/02 11:12:06;;;;;;;5.47;1.10;;;;;;;20.81;45.49;99367.69;2229881;79;21027;-58
2022/09/02 11:15:08;;;;;;;1.87;0.85;;;;;;;20.58;46.60;99366.67;2229177;79;21576;-59
2022/09/02 11:18:12;;;;;;;2.33;0.85;;;;;;;20.48;45.58;99361.87;2229320;78;21078;-58
2022/09/02 11:21:17;;;;;;;3.70;1.05;;;;;;;20.45;47.36;99365.66;2164632;81;21012;-58
2022/09/02 11:24:19;;;;;;;2.02;0.70;;;;;;;20.59;47.66;99361.70;2203384;79;22802;-58
2022/09/02 11:27:21;;;;;;;3.85;0.98;;;;;;;20.76;48.43;99360.97;2189471;79;20991;-58
2022/09/02 11:30:23;;;;;;;3.77;0.78;;;;;;;21.65;45.24;99346.68;2188081;81;21117;-58
2022/09/02 11:33:25;;;;;;;;;;;;;;;21.72;46.93;99349.08;2203297;79;21008;-58
2022/09/02 11:36:27;;;;;;;;;;;;;;;22.14;46.85;99343.59;2232838;79;20144;-57
2022/09/02 11:39:28;;;;;;;4.58;1.15;;;;;;;22.37;44.09;99353.30;2212906;80;20403;-58
2022/09/02 11:42:30;;;;;;;3.98;0.85;;;;;;;22.34;43.87;99346.08;2211000;80;21023;-58
2022/09/02 11:45:32;;;;;;;4.03;1.10;;;;;;;22.37;42.58;99346.62;2199153;80;21047;-59
2022/09/02 11:48:33;;;;;;;3.70;0.98;;;;;;;22.05;42.16;99340.02;2207406;80;21007;-58
2022/09/02 11:51:35;;;;;;;5.20;1.32;;;;;;;21.77;42.63;99333.43;2208663;79;21047;-58
2022/09/02 11:54:36;;;;;;;2.83;0.70;;;;;;;21.58;45.91;99334.94;2213050;80;20957;-57
2022/09/02 11:57:40;;;;;;;3.50;0.85;;;;;;;21.42;45.29;99336.41;2211837;80;21043;-57
2022/09/02 12:00:41;;;;;;;4.55;0.82;;;;;;;21.26;46.30;99336.22;2180995;80;20992;-58
2022/09/02 12:03:43;;;;;;;6.90;0.90;;;;;;;21.09;47.07;99335.22;2213447;79;21548;-57
2022/09/02 12:06:44;;;;;;;;;;;;;;;21.21;44.83;99336.67;2220215;79;21060;-59
2022/09/02 12:09:46;;;;;;;4.67;1.00;;;;;;;21.27;46.82;99330.73;2218505;79;20124;-57
2022/09/02 12:12:48;;;;;;;5.45;0.80;;;;;;;21.14;46.09;99329.44;2216524;79;21020;-57
2022/09/02 12:15:50;;;;;;;5.58;1.02;;;;;;;21.05;47.18;99326.66;2221437;80;21031;-57
2022/09/02 12:18:52;;;;;;;3.00;1.17;;;;;;;21.15;46.04;99325.75;2215226;79;21534;-58
2022/09/02 12:21:54;;;;;;;3.98;0.80;;;;;;;20.99;45.88;99327.73;2215867;79;20992;-58
2022/09/02 12:24:56;;;;;;;3.62;1.10;;;;;;;21.09;47.54;99331.22;2217331;79;21711;-58
2022/09/02 12:27:58;;;;;;;5.03;1.15;;;;;;;21.63;48.96;99322.78;2213306;79;21016;-58
2022/09/02 12:31:00;;;;;;;3.95;1.35;;;;;;;22.09;47.05;99321.33;2222040;79;20964;-58
2022/09/02 12:34:04;;;;;;;2.45;0.93;;;;;;;23.10;41.69;99304.33;2228180;79;21042;-58
2022/09/02 12:37:06;;;;;;;8.50;1.07;;;;;;;22.97;40.61;99315.02;2204083;80;21067;-57
2022/09/02 12:40:08;;;;;;;5.65;1.17;;;;;;;22.11;41.57;99311.34;2230926;79;21051;-57
2022/09/02 12:43:09;;;;;;;4.67;1.10;;;;;;;21.58;42.92;99312.25;2228392;78;21501;-58
2022/09/02 12:46:11;;;;;;;4.75;1.20;;;;;;;21.15;42.74;99312.42;2230224;78;21003;-57
2022/09/02 12:49:12;;;;;;;7.20;2.10;;;;;;;20.96;45.15;99306.23;2229694;79;21034;-57
2022/09/02 12:52:13;;;;;;;5.35;1.57;;;;;;;21.02;45.97;99310.11;2222771;78;21067;-58
2022/09/02 12:55:15;;;;;;;6.58;1.60;;;;;;;21.05;46.43;99309.84;2229344;78;20994;-59
2022/09/02 12:58:16;;;;;;;4.60;1.17;;;;;;;21.15;46.53;99315.09;2239012;79;21467;-59
2022/09/02 13:01:18;;;;;;;6.90;1.40;;;;;;;21.40;45.54;99307.69;2229932;78;21034;-58
2022/09/02 13:04:19;;;;;;;5.97;1.22;;;;;;;21.52;45.32;99306.17;2230209;78;20999;-58
2022/09/02 13:07:21;;;;;;;4.10;0.95;;;;;;;21.55;45.97;99305.38;2228339;78;20967;-59
2022/09/02 13:10:22;;;;;;;3.83;0.98;;;;;;;21.54;44.07;99299.69;2217546;79;21039;-59
2022/09/02 13:13:24;;;;;;;7.33;1.98;;;;;;;21.59;45.76;99296.08;2265889;78;21477;-58
2022/09/02 13:16:25;;;;;;;5.35;1.77;;;;;;;22.36;41.91;99289.33;2266071;78;21030;-59
2022/09/02 13:19:27;;;;;;;5.45;1.30;;;;;;;22.72;43.31;99289.17;2267048;78;21505;-59
2022/09/02 13:22:29;;;;;;;4.20;1.30;;;;;;;23.18;39.42;99282.99;2265201;78;21094;-58
2022/09/02 13:25:31;;;;;;;4.65;1.15;;;;;;;23.43;41.21;99277.67;2267303;78;21541;-58
2022/09/02 13:28:33;;;;;;;3.92;0.98;;;;;;;23.42;40.55;99274.66;2267833;78;21031;-59
2022/09/02 13:31:35;;;;;;;;;;;;;;;23.32;38.50;99274.32;2268873;78;21102;-58
2022/09/02 13:34:36;;;;;;;5.10;1.30;;;;;;;23.37;39.13;99271.66;2267228;78;20159;-58
2022/09/02 13:37:38;;;;;;;6.62;1.42;;;;;;;23.30;37.50;99268.79;2267524;78;21051;-58
2022/09/02 13:40:40;;;;;;;5.05;1.60;;;;;;;22.54;40.30;99278.07;2274672;77;21046;-59
2022/09/02 13:43:42;;;;;;;2.83;1.10;;;;;;;22.73;41.68;99265.42;2304052;77;21107;-58
2022/09/02 13:46:44;;;;;;;4.20;1.02;;;;;;;23.21;39.74;99257.75;2303765;77;20987;-58
2022/09/02 13:49:45;;;;;;;4.97;0.98;;;;;;;23.08;37.82;99253.67;2301380;77;20976;-57
2022/09/02 13:52:47;;;;;;;3.70;0.80;;;;;;;23.35;41.03;99249.08;2302443;77;21062;-58
2022/09/02 13:55:48;;;;;;;4.83;1.07;;;;;;;23.60;38.21;99247.74;2299559;77;20999;-57
2022/09/02 13:58:50;;;;;;;3.30;0.78;;;;;;;23.75;37.22;99256.78;2303425;77;20961;-59
2022/09/02 14:01:52;;;;;;;6.55;1.17;;;;;;;24.09;38.90;99250.91;2305355;77;21015;-58
2022/09/02 14:04:54;;;;;;;4.53;1.20;;;;;;;24.72;37.31;99251.42;2303191;77;21026;-59
2022/09/02 14:07:56;;;;;;;3.12;0.90;;;;;;;24.82;34.80;99247.16;2298278;77;21489;-59
2022/09/02 14:10:58;;;;;;;3.42;0.70;;;;;;;24.32;34.02;99255.89;2303105;77;20995;-58
2022/09/02 14:14:01;;;;;;;5.80;1.00;;;;;;;23.67;36.47;99263.47;2302752;77;20984;-58
2022/09/02 14:17:03;;;;;;;3.77;0.95;;;;;;;22.61;37.58;99260.39;2301247;77;21479;-58
2022/09/02 14:20:04;;;;;;;5.05;1.20;;;;;;;21.88;38.32;99268.77;2303326;77;20972;-57